createdAt,value
2019-05-20T00:00:10.178Z,6.03
2019-05-20T00:03:13.417Z,7.70
2019-05-20T00:06:16.336Z,7.70
2019-05-20T00:09:19.325Z,5.90
2019-05-20T00:12:22.263Z,6.70
2019-05-20T00:15:25.264Z,6.03
2019-05-20T00:18:28.298Z,7.57
2019-05-20T00:21:31.275Z,6.93
2019-05-20T00:24:34.251Z,10.43
2019-05-20T00:27:37.273Z,5.33
2019-05-20T00:30:40.314Z,7.00
2019-05-20T00:33:43.344Z,7.60
2019-05-20T00:36:46.378Z,10.80
2019-05-20T00:39:49.306Z,5.50
2019-05-20T00:42:52.228Z,4.50
2019-05-20T00:45:55.134Z,8.60
2019-05-20T00:48:58.052Z,6.27
2019-05-20T00:52:00.980Z,8.07
2019-05-20T00:55:04.997Z,13.07
2019-05-20T00:58:08.427Z,12.17
2019-05-20T01:01:11.417Z,6.70
2019-05-20T01:04:14.327Z,7.00
2019-05-20T01:07:17.256Z,9.50
2019-05-20T01:10:20.197Z,7.23
2019-05-20T01:13:23.118Z,6.80
2019-05-20T01:16:26.048Z,10.10
2019-05-20T01:19:29.259Z,12.03
2019-05-20T01:22:32.172Z,7.90
2019-05-20T01:25:35.087Z,12.90
2019-05-20T01:28:38.307Z,9.93
2019-05-20T01:31:41.605Z,12.40
2019-05-20T01:34:44.536Z,15.03
2019-05-20T01:37:47.457Z,14.33
2019-05-20T01:40:50.448Z,11.10
2019-05-20T01:43:53.435Z,13.13
2019-05-20T01:46:56.332Z,11.93
2019-05-20T01:49:59.255Z,13.43
2019-05-20T01:53:02.164Z,12.63
2019-05-20T01:56:05.183Z,11.57
2019-05-20T01:59:08.218Z,15.47
2019-05-20T02:02:11.145Z,15.60
2019-05-20T02:05:14.268Z,17.83
2019-05-20T02:08:17.178Z,12.87
2019-05-20T02:11:20.089Z,15.63
2019-05-20T02:14:26.245Z,12.33
2019-05-20T02:17:29.172Z,13.50
2019-05-20T02:20:32.100Z,15.63
2019-05-20T02:23:34.995Z,11.07
2019-05-20T02:26:37.921Z,12.13
2019-05-20T02:29:40.824Z,13.60
2019-05-20T02:32:43.870Z,15.90
2019-05-20T02:35:46.860Z,16.20
2019-05-20T02:38:49.745Z,18.37
2019-05-20T02:41:52.681Z,12.97
2019-05-20T02:44:55.588Z,18.03
2019-05-20T02:47:58.859Z,14.17
2019-05-20T02:51:01.764Z,16.50
2019-05-20T02:54:04.692Z,17.27
2019-05-20T02:57:07.624Z,16.67
2019-05-20T03:00:11.541Z,22.13
2019-05-20T03:03:14.786Z,17.10
2019-05-20T03:06:17.695Z,15.13
2019-05-20T03:09:21.731Z,15.37
2019-05-20T03:12:25.131Z,20.10
2019-05-20T03:15:28.075Z,17.33
2019-05-20T03:18:31.255Z,20.10
2019-05-20T03:21:34.223Z,25.40
2019-05-20T03:24:37.166Z,32.43
2019-05-20T03:27:40.114Z,25.07
2019-05-20T03:30:43.678Z,32.27
2019-05-20T03:33:46.706Z,35.60
2019-05-20T03:36:49.967Z,29.30
2019-05-20T03:39:52.890Z,36.40
2019-05-20T03:42:56.106Z,34.83
2019-05-20T03:45:59.029Z,44.57
2019-05-20T03:49:01.956Z,34.30
2019-05-20T03:52:04.872Z,37.10
2019-05-20T03:55:08.121Z,41.67
2019-05-20T03:58:13.607Z,47.87
2019-05-20T04:01:16.956Z,51.07
2019-05-20T04:04:20.194Z,52.40
2019-05-20T04:07:23.106Z,47.30
2019-05-20T04:10:26.035Z,48.07
2019-05-20T04:13:28.966Z,52.60
2019-05-20T04:16:32.236Z,49.90
2019-05-20T04:19:35.145Z,46.17
2019-05-20T04:22:38.075Z,54.10
2019-05-20T04:25:41.014Z,56.50
2019-05-20T04:28:43.911Z,57.63
2019-05-20T04:31:48.339Z,49.03
2019-05-20T04:34:51.364Z,49.73
2019-05-20T04:37:54.306Z,42.23
2019-05-20T04:40:57.248Z,48.83
2019-05-20T04:44:00.548Z,45.73
2019-05-20T04:47:03.487Z,42.47
2019-05-20T04:50:06.598Z,50.23
2019-05-20T04:53:09.800Z,44.30
2019-05-20T04:56:12.815Z,50.67
2019-05-20T04:59:15.723Z,36.57
2019-05-20T05:02:18.668Z,39.40
2019-05-20T05:05:36.843Z,39.80
2019-05-20T05:08:26.427Z,42.30
2019-05-20T05:11:29.360Z,43.17
2019-05-20T05:14:32.354Z,43.93
2019-05-20T05:17:35.396Z,52.93
2019-05-20T05:20:38.301Z,49.43
2019-05-20T05:23:41.244Z,52.60
2019-05-20T05:26:47.566Z,49.77
2019-05-20T05:29:48.980Z,51.30
2019-05-20T05:32:51.924Z,53.93
2019-05-20T05:35:55.514Z,56.30
2019-05-20T05:38:58.438Z,63.90
2019-05-20T05:42:01.343Z,47.87
2019-05-20T05:45:04.565Z,64.73
2019-05-20T05:48:07.493Z,53.63
2019-05-20T05:51:10.416Z,52.87
2019-05-20T05:54:13.340Z,47.03
2019-05-20T05:57:16.282Z,51.03
2019-05-20T06:00:19.721Z,50.90
2019-05-20T06:03:22.645Z,51.30
2019-05-20T06:06:25.622Z,46.13
2019-05-20T06:09:28.538Z,57.43
2019-05-20T06:12:31.470Z,58.43
2019-05-20T06:15:34.380Z,59.17
2019-05-20T06:18:37.312Z,55.40
2019-05-20T06:21:40.221Z,56.23
2019-05-20T06:24:43.143Z,57.37
2019-05-20T06:27:46.103Z,53.90
2019-05-20T06:30:49.036Z,51.20
2019-05-20T06:33:51.970Z,54.23
2019-05-20T06:36:57.776Z,54.13
2019-05-20T06:40:00.741Z,50.37
2019-05-20T06:43:03.772Z,58.70
2019-05-20T06:46:06.706Z,59.33
2019-05-20T06:49:09.674Z,61.03
2019-05-20T06:52:12.690Z,51.87
2019-05-20T06:55:15.604Z,85.87
2019-05-20T06:58:18.626Z,60.43
2019-05-20T07:01:21.599Z,52.93
2019-05-20T07:04:25.157Z,51.67
2019-05-20T07:07:29.194Z,50.63
2019-05-20T07:10:32.327Z,41.30
2019-05-20T07:13:35.326Z,52.77
2019-05-20T07:16:38.250Z,50.10
2019-05-20T07:19:41.530Z,45.50
2019-05-20T07:22:55.375Z,39.50
2019-05-20T07:25:49.409Z,46.53
2019-05-20T07:28:52.416Z,48.57
2019-05-20T07:31:55.387Z,46.77
2019-05-20T07:34:59.408Z,55.63
2019-05-20T07:38:02.345Z,55.67
2019-05-20T07:41:05.361Z,61.03
2019-05-20T07:44:08.366Z,55.90
2019-05-20T07:47:11.478Z,46.87
2019-05-20T07:50:15.218Z,57.20
2019-05-20T07:53:18.849Z,57.73
2019-05-20T07:56:27.732Z,46.83
2019-05-20T07:59:33.318Z,52.17
2019-05-20T08:02:36.750Z,51.97
2019-05-20T08:05:39.653Z,62.47
2019-05-20T08:08:42.599Z,63.33
2019-05-20T08:11:45.542Z,57.17
2019-05-20T08:14:48.582Z,67.43
2019-05-20T08:17:51.504Z,67.00
2019-05-20T08:20:54.429Z,63.07
2019-05-20T08:23:57.355Z,63.70
2019-05-20T08:27:00.265Z,62.63
2019-05-20T08:30:04.121Z,58.07
2019-05-20T08:33:09.468Z,58.70
2019-05-20T08:36:12.387Z,51.23
2019-05-20T08:39:15.306Z,62.57
2019-05-20T08:42:18.230Z,59.53
2019-05-20T08:45:21.620Z,57.03
2019-05-20T08:48:24.566Z,65.60
2019-05-20T08:51:27.478Z,56.73
2019-05-20T08:54:30.402Z,58.33
2019-05-20T08:57:33.355Z,51.60
2019-05-20T09:00:36.257Z,48.77
2019-05-20T09:03:39.173Z,48.33
2019-05-20T09:06:42.828Z,48.53
2019-05-20T09:09:45.773Z,46.17
2019-05-20T09:12:49.020Z,43.63
2019-05-20T09:15:52.043Z,39.63
2019-05-20T09:18:54.981Z,51.77
2019-05-20T09:21:57.891Z,49.87
2019-05-20T09:25:00.911Z,43.83
2019-05-20T09:28:05.404Z,50.03
2019-05-20T09:31:08.739Z,40.03
2019-05-20T09:34:11.763Z,38.07
2019-05-20T09:37:14.681Z,33.57
2019-05-20T09:40:43.774Z,35.87
2019-05-20T09:43:46.678Z,32.93
2019-05-20T09:46:49.604Z,34.57
2019-05-20T09:49:52.540Z,43.00
2019-05-20T09:52:55.760Z,31.70
2019-05-20T09:55:58.787Z,36.60
2019-05-20T09:59:01.692Z,45.80
2019-05-20T10:02:04.710Z,51.70
2019-05-20T10:05:07.723Z,50.83
2019-05-20T10:08:10.660Z,51.13
2019-05-20T10:11:13.861Z,47.07
2019-05-20T10:14:16.766Z,49.47
2019-05-20T10:17:19.701Z,50.43
2019-05-20T10:20:22.610Z,50.37
2019-05-20T10:23:25.558Z,47.60
2019-05-20T10:26:28.491Z,53.50
2019-05-20T10:29:31.439Z,57.83
2019-05-20T10:32:34.377Z,47.17
2019-05-20T10:35:37.510Z,51.87
2019-05-20T10:38:56.910Z,53.47
2019-05-20T10:41:45.784Z,47.27
2019-05-20T10:44:48.764Z,51.87
2019-05-20T10:47:51.705Z,51.07
2019-05-20T10:50:54.646Z,44.90
2019-05-20T10:53:58.475Z,49.37
2019-05-20T10:57:01.381Z,47.80
2019-05-20T11:00:06.935Z,42.03
2019-05-20T11:03:09.872Z,48.10
2019-05-20T11:06:12.912Z,51.00
2019-05-20T11:09:15.908Z,47.30
2019-05-20T11:12:18.850Z,51.17
2019-05-20T11:15:21.831Z,44.93
2019-05-20T11:18:24.862Z,45.63
2019-05-20T11:21:27.760Z,37.23
2019-05-20T11:24:30.701Z,54.23
2019-05-20T11:27:33.640Z,37.37
2019-05-20T11:30:38.854Z,41.67
2019-05-20T11:33:41.762Z,35.57
2019-05-20T11:36:45.074Z,34.17
2019-05-20T11:39:48.109Z,43.67
2019-05-20T11:42:51.068Z,37.77
2019-05-20T11:45:54.014Z,37.00
2019-05-20T11:48:58.043Z,39.33
2019-05-20T11:52:02.075Z,37.87
2019-05-20T11:55:06.288Z,34.23
2019-05-20T11:58:15.660Z,39.90
2019-05-20T12:01:14.078Z,31.70
2019-05-20T12:04:18.126Z,40.93
2019-05-20T12:07:21.087Z,32.50
2019-05-20T12:10:23.988Z,37.50
2019-05-20T12:13:27.340Z,36.90
2019-05-20T12:16:30.279Z,29.20
2019-05-20T12:19:33.287Z,37.33
2019-05-20T12:22:36.245Z,41.73
2019-05-20T12:25:39.201Z,30.87
2019-05-20T12:28:44.388Z,36.63
2019-05-20T12:31:47.315Z,38.73
2019-05-20T12:34:50.246Z,36.57
2019-05-20T12:37:53.423Z,52.57
2019-05-20T12:40:56.324Z,39.57
2019-05-20T12:44:10.928Z,33.27
2019-05-20T12:47:04.093Z,37.30
2019-05-20T12:50:07.952Z,36.30
2019-05-20T12:53:11.860Z,31.63
2019-05-20T12:56:19.064Z,36.00
2019-05-20T12:59:19.968Z,31.70
2019-05-20T13:02:22.881Z,34.70
2019-05-20T13:05:25.812Z,28.13
2019-05-20T13:08:28.739Z,33.07
2019-05-20T13:11:31.690Z,35.40
2019-05-20T13:14:34.650Z,39.23
2019-05-20T13:17:43.394Z,38.97
2019-05-20T13:20:42.594Z,38.03
2019-05-20T13:23:48.818Z,35.37
2019-05-20T13:26:50.389Z,41.50
2019-05-20T13:29:53.360Z,34.73
2019-05-20T13:32:56.298Z,30.13
2019-05-20T13:35:59.267Z,37.97
2019-05-20T13:39:04.164Z,39.33
2019-05-20T13:42:07.225Z,46.47
2019-05-20T13:45:10.725Z,29.67
2019-05-20T13:48:14.791Z,44.90
2019-05-20T13:51:18.585Z,36.60
2019-05-20T13:54:21.532Z,43.10
2019-05-20T13:57:24.486Z,40.87
2019-05-20T14:00:27.492Z,52.30
2019-05-20T14:03:30.794Z,44.30
2019-05-20T14:06:33.719Z,50.50
2019-05-20T14:09:36.669Z,49.00
2019-05-20T14:12:39.582Z,51.10
2019-05-20T14:15:42.528Z,46.77
2019-05-20T14:18:45.528Z,45.17
2019-05-20T14:21:48.459Z,53.43
2019-05-20T14:24:51.469Z,42.03
2019-05-20T14:27:54.498Z,43.03
2019-05-20T14:30:57.450Z,45.47
2019-05-20T14:34:00.333Z,48.93
2019-05-20T14:37:03.406Z,49.90
2019-05-20T14:40:06.994Z,50.23
2019-05-20T14:43:11.083Z,51.37
2019-05-20T14:46:14.018Z,48.93
2019-05-20T14:49:17.040Z,50.40
2019-05-20T14:52:19.989Z,47.70
2019-05-20T14:55:23.371Z,45.10
2019-05-20T14:58:26.743Z,55.83
2019-05-20T15:01:29.792Z,45.67
2019-05-20T15:04:33.106Z,43.07
2019-05-20T15:07:36.144Z,47.83
2019-05-20T15:10:39.051Z,47.80
2019-05-20T15:13:42.346Z,52.67
2019-05-20T15:16:45.681Z,50.63
2019-05-20T15:19:48.602Z,59.20
2019-05-20T15:22:52.522Z,46.27
2019-05-20T15:25:55.418Z,41.60
2019-05-20T15:28:58.346Z,43.17
2019-05-20T15:32:01.575Z,45.40
2019-05-20T15:35:05.511Z,45.67
2019-05-20T15:38:08.452Z,49.57
2019-05-20T15:41:11.367Z,44.87
2019-05-20T15:44:14.309Z,42.47
2019-05-20T15:47:18.946Z,46.63
2019-05-20T15:50:22.543Z,41.87
2019-05-20T15:53:25.567Z,47.33
2019-05-20T15:56:28.488Z,40.93
2019-05-20T15:59:44.711Z,39.53
2019-05-20T16:02:36.287Z,40.93
2019-05-20T16:05:39.211Z,42.07
2019-05-20T16:08:42.113Z,41.03
2019-05-20T16:11:45.143Z,46.03
2019-05-20T16:14:51.317Z,46.57
2019-05-20T16:17:53.085Z,33.77
2019-05-20T16:20:56.113Z,37.40
2019-05-20T16:23:59.313Z,27.17
2019-05-20T16:27:02.253Z,28.97
2019-05-20T16:30:07.537Z,33.23
2019-05-20T16:33:10.802Z,33.00
2019-05-20T16:36:13.830Z,39.20
2019-05-20T16:39:16.949Z,34.73
2019-05-20T16:42:20.149Z,35.97
2019-05-20T16:45:23.337Z,31.07
2019-05-20T16:48:26.240Z,33.10
2019-05-20T16:51:29.367Z,33.37
2019-05-20T16:54:32.301Z,31.20
2019-05-20T16:57:35.411Z,32.40
2019-05-20T17:00:38.756Z,42.27
2019-05-20T17:03:41.800Z,32.03
2019-05-20T17:06:44.740Z,33.77
2019-05-20T17:09:47.840Z,29.73
2019-05-20T17:12:50.791Z,36.53
2019-05-20T17:15:53.728Z,33.43
2019-05-20T17:18:56.644Z,37.83
2019-05-20T17:21:59.569Z,32.63
2019-05-20T17:25:02.538Z,33.10
2019-05-20T17:28:05.586Z,35.43
2019-05-20T17:31:08.516Z,33.80
2019-05-20T17:34:11.449Z,36.93
2019-05-20T17:37:14.450Z,35.97
2019-05-20T17:40:18.387Z,34.13
2019-05-20T17:43:21.728Z,38.67
2019-05-20T17:46:25.757Z,36.83
2019-05-20T17:49:29.006Z,35.27
2019-05-20T17:52:31.912Z,40.00
2019-05-20T17:55:34.890Z,33.60
2019-05-20T17:58:38.036Z,37.97
2019-05-20T18:01:41.178Z,30.77
2019-05-20T18:04:44.129Z,30.97
2019-05-20T18:07:47.038Z,42.33
2019-05-20T18:10:49.979Z,43.73
2019-05-20T18:13:53.021Z,38.87
2019-05-20T18:16:56.584Z,40.03
2019-05-20T18:19:59.581Z,36.57
2019-05-20T18:23:02.516Z,37.20
2019-05-20T18:26:05.822Z,38.17
2019-05-20T18:29:08.771Z,37.33
2019-05-20T18:32:11.800Z,47.93
2019-05-20T18:35:14.704Z,43.50
2019-05-20T18:38:17.629Z,36.10
2019-05-20T18:41:20.761Z,36.77
2019-05-20T18:44:23.733Z,38.73
2019-05-20T18:47:26.665Z,42.00
2019-05-20T18:50:29.677Z,45.03
2019-05-20T18:53:32.949Z,40.93
2019-05-20T18:56:35.932Z,42.53
2019-05-20T18:59:38.984Z,41.03
2019-05-20T19:02:42.353Z,47.30
2019-05-20T19:05:45.439Z,39.87
2019-05-20T19:08:48.464Z,40.60
2019-05-20T19:11:51.377Z,44.17
2019-05-20T19:14:55.442Z,36.57
2019-05-20T19:17:58.394Z,44.37
2019-05-20T19:21:01.333Z,42.80
2019-05-20T19:24:04.681Z,40.30
2019-05-20T19:27:07.588Z,39.23
2019-05-20T19:30:10.844Z,34.90
2019-05-20T19:33:14.904Z,36.87
2019-05-20T19:36:17.849Z,46.57
2019-05-20T19:39:22.073Z,35.27
2019-05-20T19:42:25.376Z,33.87
2019-05-20T19:45:28.755Z,41.73
2019-05-20T19:48:31.799Z,32.17
2019-05-20T19:51:34.727Z,32.40
2019-05-20T19:54:37.637Z,34.97
2019-05-20T19:57:40.583Z,31.10
2019-05-20T20:00:43.599Z,38.57
2019-05-20T20:03:46.566Z,33.07
2019-05-20T20:06:49.661Z,34.00
2019-05-20T20:09:52.732Z,32.33
2019-05-20T20:12:55.631Z,35.97
2019-05-20T20:16:00.248Z,25.30
2019-05-20T20:19:03.209Z,31.00
2019-05-20T20:22:06.523Z,27.00
2019-05-20T20:25:09.652Z,27.53
2019-05-20T20:28:13.017Z,28.73
2019-05-20T20:31:16.358Z,25.97
2019-05-20T20:34:19.279Z,31.73
2019-05-20T20:37:22.194Z,27.30
2019-05-20T20:40:25.109Z,41.40
2019-05-20T20:43:28.119Z,31.83
2019-05-20T20:46:31.270Z,29.60
2019-05-20T20:49:34.356Z,29.33
2019-05-20T20:52:37.440Z,27.13
2019-05-20T20:55:40.364Z,29.50
2019-05-20T20:58:43.277Z,31.40
2019-05-20T21:01:46.859Z,35.43
2019-05-20T21:04:50.276Z,30.77
2019-05-20T21:07:53.514Z,34.47
2019-05-20T21:10:56.426Z,27.73
2019-05-20T21:13:59.337Z,31.40
2019-05-20T21:17:02.857Z,27.87
2019-05-20T21:20:06.155Z,36.70
2019-05-20T21:23:09.079Z,31.83
2019-05-20T21:26:11.999Z,34.03
2019-05-20T21:29:14.935Z,31.43
2019-05-20T21:32:17.883Z,26.63
2019-05-20T21:35:21.200Z,33.67
2019-05-20T21:38:24.109Z,25.93
2019-05-20T21:41:27.015Z,29.97
2019-05-20T21:44:30.004Z,39.37
2019-05-20T21:47:32.923Z,28.07
2019-05-20T21:50:35.835Z,34.70
2019-05-20T21:53:38.771Z,30.80
2019-05-20T21:56:41.670Z,32.63
2019-05-20T21:59:44.597Z,28.57
2019-05-20T22:02:47.510Z,31.87
2019-05-20T22:05:50.530Z,28.57
2019-05-20T22:08:53.817Z,30.10
2019-05-20T22:11:56.725Z,29.27
2019-05-20T22:14:59.654Z,38.80
2019-05-20T22:18:02.772Z,24.90
2019-05-20T22:21:07.368Z,38.27
2019-05-20T22:24:10.725Z,42.03
2019-05-20T22:27:13.941Z,35.10
2019-05-20T22:30:16.899Z,34.20
2019-05-20T22:33:19.814Z,36.87
2019-05-20T22:36:23.863Z,43.33
2019-05-20T22:39:26.768Z,34.47
2019-05-20T22:42:29.707Z,44.63
2019-05-20T22:45:32.662Z,37.50
2019-05-20T22:48:35.583Z,52.23
2019-05-20T22:51:38.522Z,51.70
2019-05-20T22:54:41.474Z,48.67
2019-05-20T22:57:44.724Z,47.83
2019-05-20T23:00:47.634Z,37.03
2019-05-20T23:03:56.374Z,45.77
2019-05-20T23:06:55.416Z,40.50
2019-05-20T23:09:58.323Z,36.97
2019-05-20T23:13:01.257Z,28.03
2019-05-20T23:16:04.185Z,39.53
2019-05-20T23:19:07.141Z,35.23
2019-05-20T23:22:10.059Z,36.80
2019-05-20T23:25:12.967Z,37.43
2019-05-20T23:28:16.223Z,31.30
2019-05-20T23:31:19.251Z,30.40
2019-05-20T23:34:22.171Z,35.00
2019-05-20T23:37:25.405Z,44.30
2019-05-20T23:40:28.329Z,25.93
2019-05-20T23:43:31.271Z,48.90
2019-05-20T23:46:34.180Z,32.43
2019-05-20T23:49:37.131Z,33.43
2019-05-20T23:52:40.102Z,25.00
2019-05-20T23:55:43.863Z,32.80
2019-05-20T23:58:47.200Z,22.43
